VTCC/CNX METAR and TAF weather

Enter ICAO airport designator
Station Type Date Time Source
VTCC METAR 2019/10/15 21:00 UTC NOAA

VTCC 152100Z 00000KT 9999 FEW010 BKN032 23/22 Q1017 NOSIG


Station Type Date Time Source
VTCC Decoded METAR 2019/10/15 21:00 UTC NOAA

Chiang Mai, Thailand (VTCC) 18-47N 098-59E 314M
Oct 15, 2019 - 05:00 PM EDT / 2019.10.15 2100 UTC
Wind: Calm:0
Visibility: greater than 7 mile(s):0
Sky conditions: mostly cloudy
Temperature: 73 F (23 C)
Dew Point: 71 F (22 C)
Relative Humidity: 94%
Pressure (altimeter): 30.03 in. Hg (1017 hPa)
ob: VTCC 152100Z 00000KT 9999 FEW010 BKN032 23/22 Q1017 NOSIG
cycle: 21

Station Type Date Time Source
VTCC TAF 2019/10/15 18:36 UTC NOAA

TAF VTCC 151700Z 1518/1624 16005KT 9999 SCT035
TEMPO 1606/1612 VRB15G25KT 5000 TSRA FEW020CB BKN035

Example: see airport list